createdAt,value
2023-02-12T00:00:01.329Z,4.47
2023-02-12T00:02:35.630Z,4.42
2023-02-12T00:05:10.263Z,4.41
2023-02-12T00:07:43.523Z,4.43
2023-02-12T00:10:16.890Z,4.45
2023-02-12T00:12:50.008Z,4.40
2023-02-12T00:15:23.451Z,4.42
2023-02-12T00:17:56.598Z,4.34
2023-02-12T00:20:31.134Z,4.33
2023-02-12T00:23:04.365Z,4.36
2023-02-12T00:25:42.097Z,4.39
2023-02-12T00:28:15.458Z,4.46
2023-02-12T00:30:48.806Z,4.38
2023-02-12T00:33:22.123Z,4.24
2023-02-12T00:35:59.881Z,4.27
2023-02-12T00:38:33.233Z,4.28
2023-02-12T00:41:06.662Z,4.29
2023-02-12T00:43:40.052Z,4.32
2023-02-12T00:46:13.505Z,4.32
2023-02-12T00:48:46.684Z,4.29
2023-02-12T00:51:21.370Z,4.26
2023-02-12T00:53:54.493Z,4.36
2023-02-12T00:56:27.720Z,4.40
2023-02-12T00:59:00.822Z,4.46
2023-02-12T01:01:34.176Z,4.45
2023-02-12T01:04:07.479Z,4.46
2023-02-12T01:06:42.320Z,4.46
2023-02-12T01:09:15.971Z,4.45
2023-02-12T01:11:49.186Z,4.46
2023-02-12T01:14:22.401Z,4.37
2023-02-12T01:16:55.538Z,4.40
2023-02-12T01:19:28.889Z,4.43
2023-02-12T01:22:03.464Z,4.49
2023-02-12T01:24:36.591Z,4.54
2023-02-12T01:27:09.781Z,4.50
2023-02-12T01:29:44.678Z,4.50
2023-02-12T01:32:17.903Z,4.47
2023-02-12T01:34:51.076Z,4.38
2023-02-12T01:37:25.606Z,4.37
2023-02-12T01:39:58.760Z,4.38
2023-02-12T01:42:31.915Z,4.38
2023-02-12T01:45:50.030Z,4.42
2023-02-12T01:48:28.219Z,4.46
2023-02-12T01:51:03.865Z,4.45
2023-02-12T01:53:43.174Z,4.44
2023-02-12T01:56:17.679Z,4.38
2023-02-12T01:58:54.177Z,4.37
2023-02-12T02:01:30.339Z,4.39
2023-02-12T02:04:09.909Z,4.40
2023-02-12T02:06:50.542Z,4.38
2023-02-12T02:09:26.699Z,4.37
2023-02-12T02:12:17.688Z,4.38
2023-02-12T02:14:54.148Z,4.38
2023-02-12T02:17:48.460Z,4.33
2023-02-12T02:21:14.441Z,4.30
2023-02-12T02:24:06.892Z,4.27
2023-02-12T02:27:14.767Z,4.28
2023-02-12T02:30:33.089Z,4.34
2023-02-12T02:33:28.265Z,4.41
2023-02-12T02:36:17.132Z,4.34
2023-02-12T02:38:55.922Z,4.33
2023-02-12T02:41:36.125Z,4.34
2023-02-12T02:44:16.358Z,4.30
2023-02-12T02:46:54.511Z,4.31
2023-02-12T02:49:35.167Z,4.31
2023-02-12T02:52:13.781Z,4.37
2023-02-12T02:54:51.810Z,4.32
2023-02-12T02:57:31.522Z,4.32
2023-02-12T03:00:13.358Z,4.32
2023-02-12T03:02:53.885Z,4.33
2023-02-12T03:05:33.480Z,4.35
2023-02-12T03:08:12.155Z,4.38
2023-02-12T03:10:50.260Z,4.37
2023-02-12T03:13:29.462Z,4.38
2023-02-12T03:16:08.535Z,4.37
2023-02-12T03:18:48.646Z,4.38
2023-02-12T03:21:30.143Z,4.46
2023-02-12T03:24:12.528Z,4.61
2023-02-12T03:26:52.623Z,4.46
2023-02-12T03:29:26.079Z,4.42
2023-02-12T03:32:27.292Z,4.39
2023-02-12T03:35:11.688Z,4.40
2023-02-12T03:37:54.486Z,4.42
2023-02-12T03:40:35.431Z,4.41
2023-02-12T03:43:17.002Z,4.37
2023-02-12T03:45:57.552Z,4.34
2023-02-12T03:48:37.005Z,4.27
2023-02-12T03:51:18.726Z,4.29
2023-02-12T03:53:51.959Z,4.32
2023-02-12T03:56:30.397Z,4.34
2023-02-12T03:59:05.572Z,4.38
2023-02-12T04:01:38.971Z,4.42
2023-02-12T04:04:12.903Z,4.41
2023-02-12T04:06:50.329Z,4.40
2023-02-12T04:09:25.887Z,4.43
2023-02-12T04:12:21.880Z,4.44
2023-02-12T04:15:04.694Z,4.37
2023-02-12T04:17:51.077Z,4.32
2023-02-12T04:20:34.580Z,4.30
2023-02-12T04:23:20.123Z,4.28
2023-02-12T04:26:04.360Z,4.27
2023-02-12T04:28:47.708Z,4.34
2023-02-12T04:31:31.629Z,4.34
2023-02-12T04:34:12.040Z,4.38
2023-02-12T04:36:51.838Z,4.36
2023-02-12T04:39:30.164Z,4.38
2023-02-12T04:42:04.107Z,4.40
2023-02-12T04:44:44.089Z,4.43
2023-02-12T04:47:18.321Z,4.45
2023-02-12T04:49:51.423Z,4.44
2023-02-12T04:52:24.606Z,4.43
2023-02-12T04:54:59.167Z,4.43
2023-02-12T04:57:32.327Z,4.43
2023-02-12T05:00:06.965Z,4.43
2023-02-12T05:02:40.226Z,4.40
2023-02-12T05:05:13.466Z,4.40
2023-02-12T05:07:46.584Z,4.37
2023-02-12T05:10:21.481Z,4.34
2023-02-12T05:12:55.218Z,4.33
2023-02-12T05:15:28.553Z,4.36
2023-02-12T05:18:01.715Z,4.37
2023-02-12T05:20:34.877Z,4.34
2023-02-12T05:23:07.987Z,4.33
2023-02-12T05:25:42.473Z,4.25
2023-02-12T05:28:15.775Z,4.12
2023-02-12T05:30:48.970Z,4.10
2023-02-12T05:33:22.515Z,4.09
2023-02-12T05:35:56.197Z,4.00
2023-02-12T05:38:29.524Z,4.06
2023-02-12T05:41:05.859Z,4.02
2023-02-12T05:43:39.139Z,3.98
2023-02-12T05:46:13.166Z,4.03
2023-02-12T05:48:46.585Z,4.10
2023-02-12T05:51:23.030Z,4.16
2023-02-12T05:54:00.257Z,4.24
2023-02-12T05:56:37.576Z,4.22
2023-02-12T05:59:16.534Z,4.18
2023-02-12T06:01:51.539Z,4.18
2023-02-12T06:04:27.147Z,4.14
2023-02-12T06:07:02.204Z,4.14
2023-02-12T06:09:36.108Z,4.14
2023-02-12T06:12:10.590Z,4.18
2023-02-12T06:14:44.278Z,4.25
2023-02-12T06:17:17.369Z,4.26
2023-02-12T06:19:50.661Z,4.29
2023-02-12T06:22:23.763Z,4.36
2023-02-12T06:24:56.865Z,4.38
2023-02-12T06:27:31.308Z,4.40
2023-02-12T06:30:04.942Z,4.42
2023-02-12T06:32:38.037Z,4.38
2023-02-12T06:35:11.128Z,4.39
2023-02-12T06:37:44.260Z,4.37
2023-02-12T06:40:18.344Z,4.35
2023-02-12T06:42:52.832Z,4.36
2023-02-12T06:45:25.942Z,4.28
2023-02-12T06:47:59.066Z,4.24
2023-02-12T06:50:32.351Z,4.21
2023-02-12T06:53:05.472Z,4.24
2023-02-12T06:55:38.597Z,4.20
2023-02-12T06:58:13.047Z,4.15
2023-02-12T07:00:46.235Z,4.17
2023-02-12T07:03:22.051Z,4.22
2023-02-12T07:05:55.388Z,4.22
2023-02-12T07:08:29.318Z,4.27
2023-02-12T07:11:02.483Z,4.31
2023-02-12T07:13:37.420Z,4.31
2023-02-12T07:16:13.219Z,4.36
2023-02-12T07:18:46.986Z,4.34
2023-02-12T07:21:21.803Z,4.32
2023-02-12T07:23:55.456Z,4.34
2023-02-12T07:26:28.969Z,4.37
2023-02-12T07:29:03.484Z,4.39
2023-02-12T07:31:36.704Z,4.47
2023-02-12T07:34:12.328Z,4.49
2023-02-12T07:36:45.395Z,4.53
2023-02-12T07:39:18.495Z,4.56
2023-02-12T07:41:51.826Z,4.64
2023-02-12T07:44:26.343Z,4.66
2023-02-12T07:46:59.492Z,4.64
2023-02-12T07:49:46.639Z,4.65
2023-02-12T07:52:19.756Z,4.69
2023-02-12T07:54:52.807Z,4.72
2023-02-12T07:57:26.042Z,4.76
2023-02-12T08:00:00.512Z,4.92
2023-02-12T08:02:33.585Z,5.09
2023-02-12T08:05:07.800Z,4.87
2023-02-12T08:07:40.840Z,4.89
2023-02-12T08:10:13.890Z,4.93
2023-02-12T08:12:46.861Z,5.03
2023-02-12T08:15:21.285Z,5.12
2023-02-12T08:17:55.640Z,5.16
2023-02-12T08:20:28.743Z,5.21
2023-02-12T08:23:01.763Z,5.30
2023-02-12T08:25:34.776Z,5.34
2023-02-12T08:28:07.854Z,5.41
2023-02-12T08:30:42.273Z,5.45
2023-02-12T08:33:15.334Z,5.49
2023-02-12T08:35:48.390Z,5.50
2023-02-12T08:38:21.403Z,5.54
2023-02-12T08:40:54.534Z,5.60
2023-02-12T08:43:28.577Z,5.63
2023-02-12T08:46:08.997Z,5.67
2023-02-12T08:48:43.665Z,5.77
2023-02-12T08:51:20.163Z,5.84
2023-02-12T08:53:55.801Z,5.90
2023-02-12T08:56:30.924Z,5.95
2023-02-12T08:59:06.641Z,6.00
2023-02-12T09:01:42.694Z,6.07
2023-02-12T09:04:18.716Z,6.06
2023-02-12T09:06:52.646Z,6.40
2023-02-12T09:09:25.723Z,6.44
2023-02-12T09:11:58.799Z,6.50
2023-02-12T09:14:31.819Z,6.61
2023-02-12T09:17:06.287Z,6.73
2023-02-12T09:19:39.480Z,6.76
2023-02-12T09:22:12.946Z,6.87
2023-02-12T09:24:46.194Z,6.87
2023-02-12T09:27:19.322Z,6.81
2023-02-12T09:29:52.374Z,6.89
2023-02-12T09:32:26.835Z,6.90
2023-02-12T09:34:59.908Z,7.04
2023-02-12T09:37:32.984Z,7.03
2023-02-12T09:40:08.128Z,6.97
2023-02-12T09:43:02.471Z,7.13
2023-02-12T09:45:39.476Z,7.22
2023-02-12T09:48:38.336Z,7.50
2023-02-12T09:51:12.456Z,7.65
2023-02-12T09:53:48.466Z,7.81
2023-02-12T09:56:24.208Z,7.85
2023-02-12T09:59:03.023Z,7.86
2023-02-12T10:01:36.874Z,7.77
2023-02-12T10:04:11.532Z,7.70
2023-02-12T10:06:53.839Z,7.90
2023-02-12T10:09:44.165Z,7.98
2023-02-12T10:12:25.899Z,8.01
2023-02-12T10:15:15.517Z,8.12
2023-02-12T10:17:57.398Z,8.23
2023-02-12T10:21:03.774Z,8.26
2023-02-12T10:23:58.746Z,8.43
2023-02-12T10:26:35.849Z,8.66
2023-02-12T10:29:16.335Z,8.57
2023-02-12T10:31:54.691Z,8.54
2023-02-12T10:34:34.475Z,8.69
2023-02-12T10:37:19.561Z,8.52
2023-02-12T10:39:58.273Z,8.75
2023-02-12T10:42:39.763Z,8.73
2023-02-12T10:45:16.477Z,8.60
2023-02-12T10:47:54.418Z,8.81
2023-02-12T10:50:40.714Z,8.86
2023-02-12T10:53:23.147Z,8.98
2023-02-12T10:56:14.825Z,8.87
2023-02-12T10:58:59.305Z,8.80
2023-02-12T11:01:35.537Z,8.73
2023-02-12T11:04:25.285Z,8.81
2023-02-12T11:07:01.173Z,8.93
2023-02-12T11:09:45.229Z,9.10
2023-02-12T11:12:25.193Z,8.91
2023-02-12T11:15:00.937Z,8.90
2023-02-12T11:17:38.917Z,9.04
2023-02-12T11:20:25.906Z,8.92
2023-02-12T11:23:01.817Z,9.12
2023-02-12T11:25:39.026Z,9.11
2023-02-12T11:28:18.873Z,8.94
2023-02-12T11:30:57.158Z,9.14
2023-02-12T11:33:36.076Z,9.10
2023-02-12T11:36:18.637Z,9.34
2023-02-12T11:38:55.553Z,9.26
2023-02-12T11:41:36.210Z,8.86
2023-02-12T11:44:14.835Z,8.80
2023-02-12T11:46:50.435Z,8.79
2023-02-12T11:49:29.465Z,8.73
2023-02-12T11:52:05.418Z,9.10
2023-02-12T11:54:42.768Z,8.96
2023-02-12T11:57:39.556Z,9.17
2023-02-12T12:00:19.055Z,9.27
2023-02-12T12:02:59.267Z,9.10
2023-02-12T12:05:39.617Z,9.09
2023-02-12T12:08:21.292Z,9.14
2023-02-12T12:11:01.952Z,9.41
2023-02-12T12:13:44.368Z,9.50
2023-02-12T12:16:43.519Z,9.73
2023-02-12T12:19:40.380Z,9.76
2023-02-12T12:22:27.568Z,9.78
2023-02-12T12:25:11.776Z,9.65
2023-02-12T12:28:05.835Z,9.84
2023-02-12T12:31:02.819Z,9.65
2023-02-12T12:33:43.381Z,9.76
2023-02-12T12:37:07.424Z,9.84
2023-02-12T12:39:58.983Z,9.85
2023-02-12T12:42:59.226Z,9.89
2023-02-12T12:45:52.481Z,9.74
2023-02-12T12:48:43.149Z,9.53
2023-02-12T12:51:36.151Z,9.44
2023-02-12T12:54:25.682Z,9.32
2023-02-12T12:57:07.089Z,9.73
2023-02-12T13:00:12.773Z,9.73
2023-02-12T13:03:49.955Z,9.66
2023-02-12T13:06:44.875Z,9.37
2023-02-12T13:09:43.747Z,9.20
2023-02-12T13:13:01.667Z,9.24
2023-02-12T13:15:44.755Z,9.54
2023-02-12T13:18:31.944Z,9.55
2023-02-12T13:21:15.192Z,9.44
2023-02-12T13:23:55.283Z,9.55
2023-02-12T13:26:38.733Z,9.50
2023-02-12T13:29:18.570Z,9.53
2023-02-12T13:31:56.435Z,9.43
2023-02-12T13:34:32.613Z,9.38
2023-02-12T13:37:08.812Z,9.55
2023-02-12T13:39:48.309Z,9.27
2023-02-12T13:42:40.176Z,9.12
2023-02-12T13:45:43.288Z,9.33
2023-02-12T13:48:37.886Z,9.24
2023-02-12T13:51:24.738Z,9.39
2023-02-12T13:54:16.048Z,9.29
2023-02-12T13:56:52.846Z,9.55
2023-02-12T13:59:51.147Z,9.28
2023-02-12T14:02:44.627Z,9.38
2023-02-12T14:05:31.729Z,9.42
2023-02-12T14:08:08.046Z,9.61
2023-02-12T14:10:42.877Z,9.61
2023-02-12T14:13:22.575Z,9.70
2023-02-12T14:15:59.261Z,9.70
2023-02-12T14:18:35.868Z,9.53
2023-02-12T14:21:45.366Z,9.58
2023-02-12T14:24:52.661Z,9.58
2023-02-12T14:27:36.066Z,9.83
2023-02-12T14:30:34.529Z,9.82
2023-02-12T14:33:27.624Z,9.79
2023-02-12T14:36:18.257Z,9.71
2023-02-12T14:39:03.890Z,9.82
2023-02-12T14:41:41.637Z,9.72
2023-02-12T14:44:47.620Z,9.67
2023-02-12T14:47:54.809Z,9.78
2023-02-12T14:50:37.348Z,9.72
2023-02-12T14:53:30.926Z,9.83
2023-02-12T14:56:05.059Z,9.72
2023-02-12T14:58:39.206Z,9.83
2023-02-12T15:01:12.856Z,9.77
2023-02-12T15:03:53.916Z,9.57
2023-02-12T15:06:38.472Z,9.57
2023-02-12T15:09:17.488Z,9.51
2023-02-12T15:12:04.463Z,9.41
2023-02-12T15:14:41.310Z,9.37
2023-02-12T15:17:20.092Z,9.44
2023-02-12T15:19:59.893Z,9.21
2023-02-12T15:22:36.636Z,9.43
2023-02-12T15:25:27.263Z,9.40
2023-02-12T15:28:04.756Z,9.45
2023-02-12T15:30:38.679Z,9.35
2023-02-12T15:33:25.870Z,9.36
2023-02-12T15:36:02.260Z,9.21
2023-02-12T15:38:39.855Z,9.58
2023-02-12T15:41:28.764Z,9.58
2023-02-12T15:44:03.607Z,9.46
2023-02-12T15:46:37.097Z,9.32
2023-02-12T15:49:22.229Z,9.42
2023-02-12T15:51:58.263Z,9.40
2023-02-12T15:54:31.745Z,9.30
2023-02-12T15:57:12.640Z,9.21
2023-02-12T15:59:52.193Z,9.31
2023-02-12T16:02:29.785Z,9.29
2023-02-12T16:05:06.196Z,9.20
2023-02-12T16:07:40.709Z,9.19
2023-02-12T16:10:16.701Z,9.16
2023-02-12T16:12:51.553Z,9.05
2023-02-12T16:15:30.782Z,9.11
2023-02-12T16:18:06.801Z,8.98
2023-02-12T16:20:39.862Z,9.07
2023-02-12T16:23:15.216Z,8.95
2023-02-12T16:25:56.427Z,8.87
2023-02-12T16:28:32.066Z,8.78
2023-02-12T16:31:11.668Z,8.73
2023-02-12T16:33:49.378Z,8.61
2023-02-12T16:36:32.362Z,8.57
2023-02-12T16:39:08.531Z,8.48
2023-02-12T16:41:54.684Z,8.38
2023-02-12T16:44:32.036Z,8.26
2023-02-12T16:47:05.745Z,8.19
2023-02-12T16:49:38.907Z,8.09
2023-02-12T16:52:32.752Z,7.94
2023-02-12T16:55:13.069Z,7.80
2023-02-12T16:57:46.207Z,7.65
2023-02-12T17:00:20.520Z,7.52
2023-02-12T17:02:56.092Z,7.39
2023-02-12T17:05:29.141Z,7.27
2023-02-12T17:08:02.249Z,7.13
2023-02-12T17:10:36.635Z,7.04
2023-02-12T17:13:10.897Z,6.92
2023-02-12T17:15:51.069Z,6.80
2023-02-12T17:18:24.961Z,6.71
2023-02-12T17:21:01.808Z,6.61
2023-02-12T17:23:35.505Z,6.66
2023-02-12T17:26:09.928Z,6.51
2023-02-12T17:28:43.072Z,6.39
2023-02-12T17:31:16.571Z,6.27
2023-02-12T17:33:49.592Z,6.17
2023-02-12T17:36:23.475Z,6.09
2023-02-12T17:38:56.511Z,6.03
2023-02-12T17:41:31.124Z,5.93
2023-02-12T17:44:04.366Z,5.63
2023-02-12T17:46:37.739Z,5.52
2023-02-12T17:49:11.285Z,5.52
2023-02-12T17:51:44.351Z,5.51
2023-02-12T17:54:18.753Z,5.51
2023-02-12T17:56:53.165Z,5.40
2023-02-12T17:59:26.501Z,5.30
2023-02-12T18:02:00.540Z,5.26
2023-02-12T18:04:35.698Z,5.20
2023-02-12T18:07:13.634Z,5.15
2023-02-12T18:09:51.650Z,5.06
2023-02-12T18:12:26.228Z,5.04
2023-02-12T18:14:59.937Z,4.96
2023-02-12T18:17:34.122Z,4.89
2023-02-12T18:20:12.015Z,4.78
2023-02-12T18:22:45.918Z,4.58
2023-02-12T18:25:19.118Z,4.57
2023-02-12T18:27:53.717Z,4.53
2023-02-12T18:30:26.872Z,4.41
2023-02-12T18:33:00.053Z,4.37
2023-02-12T18:35:33.328Z,4.34
2023-02-12T18:38:06.436Z,4.27
2023-02-12T18:40:41.866Z,4.23
2023-02-12T18:43:16.362Z,4.17
2023-02-12T18:45:49.696Z,4.10
2023-02-12T18:48:23.296Z,4.03
2023-02-12T18:50:56.612Z,4.00
2023-02-12T18:53:29.929Z,3.90
2023-02-12T18:56:05.937Z,3.84
2023-02-12T18:58:40.984Z,3.76
2023-02-12T19:01:15.415Z,3.76
2023-02-12T19:03:49.523Z,3.70
2023-02-12T19:06:22.951Z,3.70
2023-02-12T19:08:57.073Z,3.66
2023-02-12T19:11:31.392Z,3.54
2023-02-12T19:14:06.394Z,3.51
2023-02-12T19:16:40.027Z,3.38
2023-02-12T19:19:14.755Z,3.32
2023-02-12T19:21:49.117Z,3.28
2023-02-12T19:24:22.718Z,3.18
2023-02-12T19:26:56.065Z,3.14
2023-02-12T19:29:30.736Z,3.04
2023-02-12T19:32:04.033Z,3.01
2023-02-12T19:34:37.271Z,2.96
2023-02-12T19:37:11.775Z,2.86
2023-02-12T19:39:45.259Z,2.82
2023-02-12T19:42:18.375Z,2.82
2023-02-12T19:44:52.965Z,2.75
2023-02-12T19:47:26.945Z,2.76
2023-02-12T19:50:00.190Z,2.71
2023-02-12T19:52:33.381Z,2.71
2023-02-12T19:55:07.342Z,2.67
2023-02-12T19:57:41.097Z,2.62
2023-02-12T20:00:17.167Z,2.55
2023-02-12T20:02:50.320Z,2.53
2023-02-12T20:05:23.470Z,2.52
2023-02-12T20:07:56.710Z,2.48
2023-02-12T20:10:30.026Z,2.43
2023-02-12T20:13:03.096Z,2.41
2023-02-12T20:15:38.696Z,2.36
2023-02-12T20:18:12.235Z,2.36
2023-02-12T20:20:45.335Z,2.31
2023-02-12T20:23:18.524Z,2.29
2023-02-12T20:25:51.957Z,2.27
2023-02-12T20:28:25.123Z,2.23
2023-02-12T20:31:00.165Z,2.24
2023-02-12T20:33:33.456Z,2.16
2023-02-12T20:36:08.122Z,2.08
2023-02-12T20:38:42.602Z,2.04
2023-02-12T20:41:15.773Z,2.06
2023-02-12T20:43:49.063Z,1.99
2023-02-12T20:46:25.800Z,1.96
2023-02-12T20:48:58.957Z,1.85
2023-02-12T20:51:32.169Z,1.86
2023-02-12T20:54:05.836Z,1.83
2023-02-12T20:56:39.925Z,1.84
2023-02-12T20:59:13.206Z,1.78
2023-02-12T21:01:48.071Z,1.82
2023-02-12T21:04:21.598Z,1.76
2023-02-12T21:06:54.950Z,1.70
2023-02-12T21:09:29.521Z,1.64
2023-02-12T21:12:02.639Z,1.60
2023-02-12T21:14:36.717Z,1.64
2023-02-12T21:17:11.340Z,1.54
2023-02-12T21:19:44.413Z,1.53
2023-02-12T21:22:17.784Z,1.49
2023-02-12T21:24:50.890Z,1.49
2023-02-12T21:27:23.987Z,1.48
2023-02-12T21:29:57.048Z,1.42
2023-02-12T21:32:33.205Z,1.42
2023-02-12T21:35:07.034Z,1.38
2023-02-12T21:37:40.116Z,1.33
2023-02-12T21:40:13.900Z,1.26
2023-02-12T21:42:47.013Z,1.22
2023-02-12T21:45:20.101Z,1.17
2023-02-12T21:47:54.503Z,1.20
2023-02-12T21:50:27.726Z,1.13
2023-02-12T21:53:00.815Z,1.00
2023-02-12T21:55:37.472Z,0.90
2023-02-12T21:58:10.631Z,0.90
2023-02-12T22:00:43.774Z,0.93
2023-02-12T22:03:19.272Z,0.95
2023-02-12T22:05:52.374Z,0.95
2023-02-12T22:08:25.848Z,0.96
2023-02-12T22:10:59.635Z,0.93
2023-02-12T22:13:33.366Z,0.94
2023-02-12T22:16:10.916Z,0.93
2023-02-12T22:18:46.288Z,0.86
2023-02-12T22:21:19.785Z,0.82
2023-02-12T22:23:53.836Z,0.57
2023-02-12T22:26:29.360Z,0.59
2023-02-12T22:29:06.456Z,0.63
2023-02-12T22:31:42.125Z,0.66
2023-02-12T22:34:18.773Z,0.72
2023-02-12T22:36:52.094Z,0.74
2023-02-12T22:39:25.329Z,0.74
2023-02-12T22:41:58.457Z,0.61
2023-02-12T22:44:31.605Z,0.51
2023-02-12T22:47:05.514Z,0.52
2023-02-12T22:49:40.024Z,0.53
2023-02-12T22:52:13.442Z,0.51
2023-02-12T22:54:46.546Z,0.56
2023-02-12T22:57:19.632Z,0.58
2023-02-12T22:59:52.678Z,0.62
2023-02-12T23:02:25.769Z,0.60
2023-02-12T23:05:00.209Z,0.68
2023-02-12T23:07:33.312Z,0.71
2023-02-12T23:10:08.010Z,0.75
2023-02-12T23:12:41.108Z,0.78
2023-02-12T23:15:14.288Z,0.75
2023-02-12T23:17:47.344Z,0.80
2023-02-12T23:20:21.920Z,0.83
2023-02-12T23:22:55.018Z,0.83
2023-02-12T23:25:28.160Z,0.84
2023-02-12T23:28:01.320Z,0.82
2023-02-12T23:30:34.412Z,0.77
2023-02-12T23:33:07.566Z,0.71
2023-02-12T23:35:42.120Z,0.62
2023-02-12T23:38:16.171Z,0.52
2023-02-12T23:40:49.757Z,0.53
2023-02-12T23:43:23.076Z,0.53
2023-02-12T23:45:56.188Z,0.51
2023-02-12T23:48:29.332Z,0.54
2023-02-12T23:51:03.882Z,0.60
2023-02-12T23:53:37.118Z,0.58
2023-02-12T23:56:10.192Z,0.57
2023-02-12T23:58:43.285Z,0.53
